EmailTwitter


Surface observations / United Kingdom / EGTE (03839)

Regions: Quebec | Canada | USA | Europe | France | UK | Elsewhere
Station
Display
Info & Location for EGTE (03839) | Help decoding METAR

Weather Conditions observed on 2018/09/26 at 05:20 UTC at EXETER AIRPORT, UK (EGTE)

Obstruction(s) to Vision: patches fog.

Temperature: 1.0 Celsius.

Dewpoint: 1.0 Celsius.

Relative Humidity: 100%

Winds: Northeast at 4 km/h or 2 knots.

Mean Sea level Pressure: 103.30 kilopascals.

Horizontal visibility: 1.24 statute miles or 1.99 kilometers.

Coded METAR:

EGTE 260520Z 05002KT 2000 BCFG NSC 01/01 Q1033=